Time;durP1;ratioP1;P1;durP2;ratioP2;P2;SDS_P1;SDS_P2;PMS_P1;PMS_P2;Temp;Humidity;BMP_temperature;BMP_pressure;BME280_temperature;BME280_humidity;BME280_pressure;Samples;Min_cycle;Max_cycle;Signal;HPM_P1;HPM_P2
2022/05/15 00:00:53;;;;;;;5.10;4.60;;;16.40;59.90;;;;;;4977762;28;20476;-45
2022/05/15 00:03:23;;;;;;;5.93;4.33;;;16.40;60.00;;;;;;4962038;28;20480;-46
2022/05/15 00:05:57;;;;;;;6.80;4.63;;;16.40;60.60;;;;;;4951943;28;20556;-46
2022/05/15 00:08:25;;;;;;;3.80;3.40;;;16.30;60.60;;;;;;4971164;28;20496;-46
2022/05/15 00:10:56;;;;;;;8.50;4.00;;;16.30;60.40;;;;;;4961880;28;20482;-45
2022/05/15 00:13:25;;;;;;;6.40;3.70;;;16.30;60.20;;;;;;4974355;28;20477;-46
2022/05/15 00:15:52;;;;;;;5.10;4.20;;;16.30;60.50;;;;;;4978933;28;20462;-45
2022/05/15 00:18:20;;;;;;;4.80;4.10;;;16.30;60.80;;;;;;4976802;28;20532;-46
2022/05/15 00:20:49;;;;;;;6.63;4.83;;;16.20;60.40;;;;;;4977819;28;20516;-45
2022/05/15 00:23:17;;;;;;;6.93;4.10;;;16.20;60.50;;;;;;4975256;28;20480;-45
2022/05/15 00:25:44;;;;;;;7.90;5.00;;;16.20;60.60;;;;;;4974531;28;20488;-45
2022/05/15 00:28:13;;;;;;;7.03;4.87;;;16.10;61.20;;;;;;4977893;28;20488;-45
2022/05/15 00:30:40;;;;;;;7.00;5.13;;;16.10;61.60;;;;;;4977949;28;20544;-45
2022/05/15 00:33:07;;;;;;;6.17;4.27;;;16.10;61.70;;;;;;4980332;28;20465;-46
2022/05/15 00:35:35;;;;;;;6.63;5.00;;;16.00;61.90;;;;;;4983903;28;20838;-46
2022/05/15 00:38:04;;;;;;;7.33;4.93;;;16.00;62.40;;;;;;4981470;28;20964;-45
2022/05/15 00:40:31;;;;;;;7.57;6.47;;;16.00;62.10;;;;;;4964063;28;20528;-45
2022/05/15 00:42:58;;;;;;;9.53;5.33;;;16.00;62.30;;;;;;4980151;28;20904;-45
2022/05/15 00:45:25;;;;;;;6.00;5.40;;;16.00;62.30;;;;;;4981394;28;20469;-46
2022/05/15 00:47:51;;;;;;;11.17;5.70;;;16.00;62.40;;;;;;4978305;28;20515;-45
2022/05/15 00:50:25;;;;;;;5.33;4.93;;;16.00;62.40;;;;;;4982424;28;20559;-45
2022/05/15 00:52:57;;;;;;;8.37;5.00;;;15.90;62.20;;;;;;4980620;28;20935;-45
2022/05/15 00:55:40;;;;;;;6.30;5.27;;;15.90;62.60;;;;;;4983047;28;21101;-46
2022/05/15 00:58:14;;;;;;;5.80;5.20;;;15.80;62.60;;;;;;4983636;28;20459;-46
2022/05/15 01:00:42;;;;;;;6.43;5.40;;;15.80;62.90;;;;;;4979646;28;20664;-45
2022/05/15 01:03:16;;;;;;;9.47;6.00;;;15.80;63.10;;;;;;4984081;28;21060;-45
2022/05/15 01:06:02;;;;;;;7.10;5.70;;;15.80;63.20;;;;;;4981254;28;20840;-45
2022/05/15 01:08:30;;;;;;;7.30;6.57;;;15.70;63.10;;;;;;4983028;28;20908;-46
2022/05/15 01:10:59;;;;;;;8.10;5.80;;;15.70;63.60;;;;;;4982985;28;20466;-46
2022/05/15 01:13:31;;;;;;;10.17;5.63;;;15.70;63.60;;;;;;4972190;28;20554;-46
2022/05/15 01:15:58;;;;;;;6.17;5.37;;;15.60;63.90;;;;;;4972803;28;20481;-45
2022/05/15 01:18:28;;;;;;;6.90;5.77;;;15.60;63.60;;;;;;4968673;28;20550;-46
2022/05/15 01:21:16;;;;;;;7.50;6.17;;;15.50;63.90;;;;;;4979053;28;20555;-46
2022/05/15 01:23:43;;;;;;;6.10;5.30;;;15.50;64.10;;;;;;4981867;28;20479;-45
2022/05/15 01:26:12;;;;;;;7.43;6.00;;;15.40;64.30;;;;;;4980410;28;20554;-46
2022/05/15 01:28:39;;;;;;;9.83;5.73;;;15.40;64.40;;;;;;4982008;28;20489;-45
2022/05/15 01:31:06;;;;;;;7.47;5.97;;;15.40;64.50;;;;;;4980225;28;20484;-45
2022/05/15 01:33:33;;;;;;;10.77;6.40;;;15.40;65.10;;;;;;4983354;28;20514;-45
2022/05/15 01:35:59;;;;;;;7.33;6.57;;;15.40;65.10;;;;;;4982814;28;20503;-45
2022/05/15 01:38:26;;;;;;;8.10;6.57;;;15.30;65.00;;;;;;4981798;28;20885;-45
2022/05/15 01:40:53;;;;;;;6.67;6.07;;;15.30;65.30;;;;;;4972932;28;20468;-45
2022/05/15 01:43:19;;;;;;;6.77;6.10;;;15.30;65.50;;;;;;4960103;28;20498;-45
2022/05/15 01:45:46;;;;;;;7.87;5.90;;;15.20;65.50;;;;;;4977700;28;20580;-46
2022/05/15 01:48:13;;;;;;;9.87;7.53;;;15.20;65.70;;;;;;4977709;28;20915;-45
2022/05/15 01:50:40;;;;;;;7.70;6.93;;;15.20;65.90;;;;;;4980037;28;20507;-46
2022/05/15 01:53:06;;;;;;;8.00;7.30;;;15.20;66.00;;;;;;4980100;28;20464;-46
2022/05/15 01:55:33;;;;;;;7.80;6.47;;;15.20;65.60;;;;;;4973834;28;20484;-46
2022/05/15 01:58:00;;;;;;;6.60;6.00;;;15.20;66.20;;;;;;4981484;28;20834;-46
2022/05/15 02:00:27;;;;;;;8.57;6.80;;;15.20;66.10;;;;;;4982274;28;20498;-45
2022/05/15 02:02:54;;;;;;;6.47;5.73;;;15.10;66.10;;;;;;4978223;28;20495;-45
2022/05/15 02:05:22;;;;;;;7.33;6.70;;;15.10;66.40;;;;;;4979788;28;20487;-45
2022/05/15 02:07:49;;;;;;;9.80;6.63;;;15.10;66.60;;;;;;4981062;28;20528;-45
2022/05/15 02:10:16;;;;;;;10.37;7.50;;;15.10;66.40;;;;;;4979059;28;20464;-45
2022/05/15 02:12:44;;;;;;;7.87;7.17;;;15.10;66.60;;;;;;4980060;28;20484;-45
2022/05/15 02:15:11;;;;;;;10.07;6.87;;;15.00;66.80;;;;;;4976309;28;21152;-45
2022/05/15 02:17:38;;;;;;;10.50;7.77;;;15.00;66.90;;;;;;4985044;28;20551;-46
2022/05/15 02:20:07;;;;;;;7.80;7.00;;;15.00;67.00;;;;;;4980436;28;20461;-47
2022/05/15 02:22:34;;;;;;;9.70;8.07;;;15.00;67.20;;;;;;4962095;28;20457;-44
2022/05/15 02:25:00;;;;;;;8.23;7.43;;;15.00;67.20;;;;;;4962372;28;20958;-45
2022/05/15 02:27:28;;;;;;;9.73;7.70;;;15.00;67.30;;;;;;4980416;28;20457;-45
2022/05/15 02:29:54;;;;;;;9.33;7.30;;;15.00;67.30;;;;;;4982434;28;20488;-45
2022/05/15 02:32:21;;;;;;;7.63;7.03;;;14.90;67.40;;;;;;4978491;28;20480;-45
2022/05/15 02:34:48;;;;;;;8.43;7.43;;;14.90;67.40;;;;;;4980011;28;20552;-45
2022/05/15 02:37:14;;;;;;;8.23;7.30;;;14.90;67.60;;;;;;4978285;28;20487;-45
2022/05/15 02:39:41;;;;;;;9.20;7.67;;;14.90;67.70;;;;;;4978407;28;20461;-46
2022/05/15 02:42:09;;;;;;;8.30;7.60;;;14.90;67.90;;;;;;4979448;28;20970;-45
2022/05/15 02:44:35;;;;;;;10.03;7.83;;;14.80;67.70;;;;;;4982605;28;20476;-46
2022/05/15 02:47:03;;;;;;;9.20;7.67;;;14.80;67.90;;;;;;4982326;28;20468;-43
2022/05/15 02:52:15;;;;;;;9.13;8.23;;;14.80;67.90;;;;;;4980233;28;20845;-44
2022/05/15 02:54:43;;;;;;;10.13;7.83;;;14.80;68.00;;;;;;4977607;28;20819;-44
2022/05/15 02:57:10;;;;;;;8.63;7.73;;;14.80;68.00;;;;;;4975216;28;21025;-44
2022/05/15 02:59:37;;;;;;;11.20;8.17;;;14.70;67.90;;;;;;4973621;28;20473;-43
2022/05/15 03:02:05;;;;;;;8.60;7.70;;;14.70;68.10;;;;;;4961090;28;20515;-43
2022/05/15 03:04:32;;;;;;;8.23;7.40;;;14.70;68.20;;;;;;4977915;28;20464;-43
2022/05/15 03:06:59;;;;;;;8.87;7.63;;;14.60;68.50;;;;;;4980418;28;21104;-43
2022/05/15 03:09:25;;;;;;;8.60;7.70;;;14.60;68.50;;;;;;4978536;28;21032;-44
2022/05/15 03:11:52;;;;;;;7.20;6.53;;;14.60;68.70;;;;;;4977089;28;20962;-43
2022/05/15 03:14:19;;;;;;;10.87;7.30;;;14.50;68.70;;;;;;4963334;28;20475;-43
2022/05/15 03:16:46;;;;;;;8.27;7.57;;;14.60;68.90;;;;;;4970652;28;20479;-43
2022/05/15 03:19:12;;;;;;;7.50;6.80;;;14.60;68.70;;;;;;4981358;28;20559;-43
2022/05/15 03:21:39;;;;;;;8.03;7.33;;;14.60;68.70;;;;;;4980671;28;20547;-43
2022/05/15 03:24:11;;;;;;;14.27;7.60;;;14.50;68.70;;;;;;4981899;28;20480;-43
2022/05/15 03:26:43;;;;;;;8.97;7.60;;;14.50;68.90;;;;;;4967616;28;20473;-43
2022/05/15 03:29:12;;;;;;;7.90;7.10;;;14.50;68.80;;;;;;4979835;28;20583;-43
2022/05/15 03:31:39;;;;;;;9.60;8.20;;;14.50;69.00;;;;;;4979021;28;20469;-43
2022/05/15 03:34:09;;;;;;;8.30;7.50;;;14.50;68.90;;;;;;4980828;28;20557;-43
2022/05/15 03:36:38;;;;;;;9.77;7.70;;;14.40;69.10;;;;;;4976563;28;20820;-43
2022/05/15 03:39:06;;;;;;;9.67;7.57;;;14.40;69.10;;;;;;4980110;28;20465;-43
2022/05/15 03:41:34;;;;;;;7.80;7.10;;;14.40;69.20;;;;;;4974952;28;20478;-43
2022/05/15 03:44:02;;;;;;;11.37;8.20;;;14.40;69.20;;;;;;4977059;28;20469;-43
2022/05/15 03:46:29;;;;;;;7.33;6.60;;;14.40;69.20;;;;;;4978217;28;20563;-43
2022/05/15 03:48:56;;;;;;;8.40;7.60;;;14.30;69.20;;;;;;4959786;28;20496;-44
2022/05/15 03:51:23;;;;;;;11.80;7.43;;;14.30;69.20;;;;;;4962972;28;20457;-44
2022/05/15 03:53:50;;;;;;;8.90;7.57;;;14.30;69.10;;;;;;4968894;28;20456;-44
2022/05/15 03:56:17;;;;;;;10.27;8.30;;;14.30;69.20;;;;;;4977544;28;20460;-44
2022/05/15 03:58:49;;;;;;;9.00;7.90;;;14.30;69.20;;;;;;4978616;28;20481;-44
2022/05/15 04:01:16;;;;;;;9.83;7.77;;;14.30;69.20;;;;;;4980963;28;21044;-44
2022/05/15 04:03:43;;;;;;;7.73;6.93;;;14.30;69.50;;;;;;4967521;28;20536;-43
2022/05/15 04:06:10;;;;;;;9.37;7.40;;;14.30;69.40;;;;;;4980501;28;20962;-44
2022/05/15 04:08:37;;;;;;;8.47;7.77;;;14.30;69.50;;;;;;4978122;28;20487;-43
2022/05/15 04:11:03;;;;;;;8.97;7.77;;;14.30;69.60;;;;;;4972554;28;20465;-43
2022/05/15 04:13:30;;;;;;;7.60;6.90;;;14.30;69.50;;;;;;4983260;28;20463;-43
2022/05/15 04:15:57;;;;;;;8.50;7.33;;;14.30;69.80;;;;;;4984085;28;20492;-43
2022/05/15 04:18:24;;;;;;;9.90;8.37;;;14.30;69.80;;;;;;4968513;28;20910;-43
2022/05/15 04:20:51;;;;;;;9.00;8.20;;;14.30;69.90;;;;;;4982793;28;20468;-43
2022/05/15 04:23:18;;;;;;;7.93;7.13;;;14.30;70.10;;;;;;4985459;28;20987;-43
2022/05/15 04:25:45;;;;;;;11.50;8.40;;;14.30;70.00;;;;;;4985490;28;20460;-43
2022/05/15 04:28:12;;;;;;;7.80;7.10;;;14.30;70.10;;;;;;4964517;28;20527;-43
2022/05/15 04:30:38;;;;;;;7.97;7.10;;;14.30;70.10;;;;;;4964569;28;21241;-43
2022/05/15 04:33:05;;;;;;;7.20;6.53;;;14.30;70.50;;;;;;4976763;28;20448;-43
2022/05/15 04:35:32;;;;;;;8.20;7.50;;;14.30;70.50;;;;;;4980642;28;20464;-43
2022/05/15 04:37:59;;;;;;;7.83;7.00;;;14.30;70.60;;;;;;4965603;28;20468;-43
2022/05/15 04:40:25;;;;;;;9.97;9.07;;;14.30;70.80;;;;;;4986245;28;20486;-43
2022/05/15 04:42:52;;;;;;;7.50;6.80;;;14.40;71.10;;;;;;4980501;28;20552;-43
2022/05/15 04:45:19;;;;;;;7.90;6.97;;;14.40;70.90;;;;;;4983856;28;21660;-44
2022/05/15 04:47:46;;;;;;;7.57;6.80;;;14.40;70.70;;;;;;4983060;28;20931;-44
2022/05/15 04:50:14;;;;;;;7.93;7.23;;;14.50;70.90;;;;;;4985357;28;20880;-43
2022/05/15 04:52:42;;;;;;;8.40;7.60;;;14.50;70.80;;;;;;4964589;28;20918;-43
2022/05/15 04:55:09;;;;;;;7.80;7.00;;;14.50;71.00;;;;;;4984733;28;20453;-43
2022/05/15 04:57:36;;;;;;;13.23;7.67;;;14.60;70.70;;;;;;4968647;28;20472;-44
2022/05/15 05:00:12;;;;;;;9.13;6.80;;;14.60;70.60;;;;;;4980086;28;21126;-43
2022/05/15 05:02:39;;;;;;;7.37;6.40;;;14.70;70.70;;;;;;4960826;28;20754;-43
2022/05/15 05:05:10;;;;;;;7.17;6.57;;;14.70;70.70;;;;;;4981539;28;20476;-43
2022/05/15 05:07:37;;;;;;;8.23;7.13;;;14.70;70.70;;;;;;4984267;28;20479;-43
2022/05/15 05:10:05;;;;;;;9.00;7.27;;;14.80;70.60;;;;;;4981577;28;20582;-44
2022/05/15 05:12:32;;;;;;;7.77;7.07;;;14.80;70.50;;;;;;4981778;28;20494;-44
2022/05/15 05:14:59;;;;;;;11.53;7.03;;;14.90;69.90;;;;;;4980952;28;20472;-44
2022/05/15 05:17:28;;;;;;;8.30;7.50;;;14.90;69.80;;;;;;4982861;28;20493;-44
2022/05/15 05:19:55;;;;;;;8.87;6.90;;;14.90;70.20;;;;;;4980930;28;20469;-44
2022/05/15 05:22:21;;;;;;;8.80;7.83;;;14.90;70.10;;;;;;4982530;28;20457;-44
2022/05/15 05:24:48;;;;;;;10.23;7.57;;;15.00;70.00;;;;;;4979736;28;20474;-44
2022/05/15 05:27:15;;;;;;;7.90;6.97;;;15.10;70.00;;;;;;4980591;28;20904;-44
2022/05/15 05:29:42;;;;;;;10.87;7.70;;;15.10;70.10;;;;;;4982397;28;20528;-44
2022/05/15 05:32:09;;;;;;;8.87;7.90;;;15.10;70.20;;;;;;4979356;28;21389;-44
2022/05/15 05:34:36;;;;;;;9.13;7.43;;;15.20;70.50;;;;;;4965069;28;20465;-44
2022/05/15 05:37:03;;;;;;;8.30;7.47;;;15.30;70.50;;;;;;4962698;28;20571;-44
2022/05/15 05:39:29;;;;;;;10.77;7.97;;;15.30;70.50;;;;;;4961295;28;20508;-44
2022/05/15 05:41:57;;;;;;;9.00;8.10;;;15.40;70.30;;;;;;4960910;28;20488;-44
2022/05/15 05:44:25;;;;;;;10.13;6.63;;;15.40;70.30;;;;;;4981557;28;21190;-45
2022/05/15 05:46:53;;;;;;;7.73;6.90;;;15.50;70.40;;;;;;4981217;28;20975;-45
2022/05/15 05:49:20;;;;;;;7.53;6.93;;;15.60;69.60;;;;;;4980630;28;20531;-44
2022/05/15 05:51:47;;;;;;;9.20;6.93;;;15.70;69.20;;;;;;4980749;28;20567;-44
2022/05/15 05:54:14;;;;;;;9.03;6.37;;;15.70;68.90;;;;;;4983171;28;20445;-44
2022/05/15 05:56:41;;;;;;;8.70;6.67;;;15.80;68.30;;;;;;4963831;28;20480;-44
2022/05/15 05:59:08;;;;;;;6.30;5.73;;;16.00;67.80;;;;;;4961086;28;20471;-45
2022/05/15 06:01:35;;;;;;;11.33;6.50;;;16.10;67.20;;;;;;4980274;28;20845;-45
2022/05/15 06:06:54;;;;;;;9.10;6.20;;;16.40;66.30;;;;;;4982557;28;20485;-44
2022/05/15 06:09:20;;;;;;;7.43;5.50;;;16.60;66.50;;;;;;4977097;28;21028;-44
2022/05/15 06:11:47;;;;;;;5.70;5.20;;;16.60;66.10;;;;;;4978733;28;20487;-45
2022/05/15 06:14:14;;;;;;;8.10;6.00;;;16.70;65.80;;;;;;4985337;28;20533;-44
2022/05/15 06:16:40;;;;;;;8.77;5.80;;;16.80;65.20;;;;;;4980450;28;20663;-44
2022/05/15 06:19:08;;;;;;;7.47;5.73;;;16.90;64.90;;;;;;4981946;28;20830;-44
2022/05/15 06:21:35;;;;;;;7.93;5.07;;;17.00;64.50;;;;;;4978724;28;20500;-44
2022/05/15 06:24:02;;;;;;;6.87;6.00;;;17.20;64.40;;;;;;4976186;28;20476;-44
2022/05/15 06:26:29;;;;;;;6.87;5.20;;;17.30;64.40;;;;;;4977377;28;20822;-43
2022/05/15 06:28:55;;;;;;;5.90;4.77;;;17.50;63.50;;;;;;4977073;28;20489;-44
2022/05/15 06:31:22;;;;;;;8.27;4.67;;;17.60;63.40;;;;;;4972900;28;20485;-44
2022/05/15 06:33:49;;;;;;;7.37;5.20;;;17.80;63.70;;;;;;4981724;28;20567;-44
2022/05/15 06:36:16;;;;;;;4.93;4.47;;;17.90;63.30;;;;;;4978934;28;20481;-44
2022/05/15 06:38:43;;;;;;;5.10;4.60;;;18.10;63.00;;;;;;4983430;28;20493;-43
2022/05/15 06:41:10;;;;;;;6.40;4.40;;;18.30;62.20;;;;;;4980184;28;20475;-43
2022/05/15 06:43:38;;;;;;;5.97;4.10;;;18.40;62.20;;;;;;4977656;28;20470;-44
2022/05/15 06:46:04;;;;;;;5.17;4.67;;;18.60;60.90;;;;;;4978169;28;20475;-44
2022/05/15 06:48:33;;;;;;;7.23;5.43;;;18.70;60.40;;;;;;4977977;28;20472;-43
2022/05/15 06:51:01;;;;;;;10.30;5.77;;;18.80;60.10;;;;;;4954089;28;20470;-43
2022/05/15 06:53:27;;;;;;;12.13;5.03;;;18.90;59.80;;;;;;4975035;28;20458;-44
2022/05/15 06:58:39;;;;;;;11.43;5.07;;;19.10;58.90;;;;;;4979112;28;20478;-44
2022/05/15 07:01:07;;;;;;;6.10;5.50;;;19.20;58.20;;;;;;4981114;28;20965;-44
2022/05/15 07:03:34;;;;;;;7.83;4.90;;;19.30;58.00;;;;;;4977980;28;20511;-44
2022/05/15 07:06:01;;;;;;;5.03;4.63;;;19.40;57.10;;;;;;4977820;28;20463;-44
2022/05/15 07:08:28;;;;;;;8.63;4.37;;;19.40;57.00;;;;;;4976128;28;21035;-44
2022/05/15 07:10:55;;;;;;;5.90;4.23;;;19.60;56.60;;;;;;4980017;28;20469;-44
2022/05/15 07:13:21;;;;;;;7.10;4.97;;;19.70;56.50;;;;;;4979306;28;20466;-44
2022/05/15 07:15:48;;;;;;;6.80;4.50;;;19.80;56.30;;;;;;4979364;28;20471;-44
2022/05/15 07:18:15;;;;;;;5.20;4.70;;;20.00;56.60;;;;;;4981468;28;20986;-45
2022/05/15 07:20:41;;;;;;;5.33;4.60;;;20.20;55.80;;;;;;4982363;28;20479;-44
2022/05/15 07:23:08;;;;;;;4.70;4.20;;;20.30;55.30;;;;;;4978397;28;20974;-44
2022/05/15 07:25:35;;;;;;;8.87;4.27;;;20.50;55.20;;;;;;4978018;28;20487;-44
2022/05/15 07:28:02;;;;;;;9.53;4.03;;;20.60;54.20;;;;;;4978153;28;20592;-44
2022/05/15 07:30:29;;;;;;;7.90;3.80;;;20.80;53.20;;;;;;4957613;28;20497;-44
2022/05/15 07:32:55;;;;;;;4.87;4.20;;;20.90;52.60;;;;;;4978879;28;20484;-44
2022/05/15 07:35:22;;;;;;;6.03;4.80;;;20.90;52.90;;;;;;4981167;28;20857;-44
2022/05/15 07:37:53;;;;;;;7.67;4.10;;;21.00;52.60;;;;;;4976950;28;20470;-44
2022/05/15 07:40:20;;;;;;;4.87;4.00;;;21.00;52.10;;;;;;4978239;28;20552;-44
2022/05/15 07:42:47;;;;;;;10.60;4.40;;;21.00;52.40;;;;;;4979478;28;20466;-44
2022/05/15 07:45:15;;;;;;;5.73;4.10;;;21.20;52.30;;;;;;4986729;28;20484;-44
2022/05/15 07:47:42;;;;;;;11.73;5.20;;;21.40;52.10;;;;;;4985874;28;20476;-44
2022/05/15 07:50:11;;;;;;;10.90;3.90;;;21.60;51.90;;;;;;4966717;28;20494;-44
2022/05/15 07:52:38;;;;;;;6.00;3.73;;;21.70;51.50;;;;;;4984514;28;20446;-45
2022/05/15 07:55:10;;;;;;;6.93;4.03;;;21.90;51.50;;;;;;4975364;28;20460;-44
2022/05/15 07:57:37;;;;;;;5.90;4.20;;;22.10;51.50;;;;;;4986770;28;20500;-44
2022/05/15 08:00:09;;;;;;;6.33;3.93;;;22.30;50.60;;;;;;4985560;28;21557;-44
2022/05/15 08:02:36;;;;;;;8.07;4.03;;;22.40;51.20;;;;;;4984299;28;20551;-44
2022/05/15 08:08:03;;;;;;;4.70;3.43;;;22.60;51.30;;;;;;4975440;28;20474;-44
2022/05/15 08:10:35;;;;;;;5.67;3.93;;;22.80;50.00;;;;;;4969008;28;20493;-43
2022/05/15 08:13:03;;;;;;;6.67;4.63;;;22.90;50.20;;;;;;4963916;28;20483;-44
2022/05/15 08:15:31;;;;;;;6.57;4.30;;;23.00;49.90;;;;;;4964397;28;20457;-44
2022/05/15 08:23:33;;;;;;;7.53;4.03;;;23.00;49.00;;;;;;4983405;28;20853;-44
2022/05/15 08:23:40;;;;;;;4.17;3.60;;;23.20;48.00;;;;;;4981726;28;20500;-44
2022/05/15 08:26:07;;;;;;;6.50;4.63;;;23.30;47.70;;;;;;4965722;28;20466;-44
2022/05/15 08:28:35;;;;;;;5.10;3.43;;;23.30;47.70;;;;;;4962878;28;20475;-43
2022/05/15 08:31:04;;;;;;;4.10;3.70;;;23.30;47.10;;;;;;4980083;28;20496;-44
2022/05/15 08:33:31;;;;;;;6.97;4.23;;;23.30;47.50;;;;;;4977745;28;20731;-44
2022/05/15 08:35:58;;;;;;;6.20;3.87;;;23.40;47.60;;;;;;4987048;28;20468;-44
2022/05/15 08:38:26;;;;;;;5.63;4.53;;;23.50;47.30;;;;;;4970024;28;20472;-44
2022/05/15 08:41:00;;;;;;;7.30;3.97;;;23.70;47.30;;;;;;4983351;28;20469;-43
2022/05/15 08:44:03;;;;;;;5.37;3.50;;;23.80;47.00;;;;;;4985057;28;20467;-43
2022/05/15 08:46:56;;;;;;;7.70;4.20;;;23.80;46.90;;;;;;4982796;28;20460;-44
2022/05/15 08:49:37;;;;;;;4.27;3.73;;;23.80;46.80;;;;;;4976267;28;20498;-45
2022/05/15 08:52:17;;;;;;;6.20;3.73;;;23.90;46.80;;;;;;4983803;28;21009;-44
2022/05/15 08:54:57;;;;;;;4.07;3.43;;;24.00;47.00;;;;;;4978061;28;22199;-44
2022/05/15 08:57:52;;;;;;;6.07;3.77;;;24.00;46.80;;;;;;4981368;28;20846;-44
2022/05/15 09:00:25;;;;;;;6.47;3.80;;;24.10;46.80;;;;;;4976578;28;20556;-44
2022/05/15 09:02:55;;;;;;;6.03;3.50;;;24.30;46.60;;;;;;4966362;28;20630;-44
2022/05/15 09:05:27;;;;;;;7.97;4.00;;;24.50;46.90;;;;;;4983758;28;20488;-45
2022/05/15 09:08:12;;;;;;;7.80;3.83;;;24.60;46.30;;;;;;4983511;28;20908;-45
2022/05/15 09:11:07;;;;;;;6.40;3.47;;;24.80;45.50;;;;;;4984253;28;20489;-45
2022/05/15 09:13:46;;;;;;;5.43;4.07;;;25.00;45.60;;;;;;4980930;28;20930;-44
2022/05/15 09:16:21;;;;;;;5.17;3.47;;;25.10;45.40;;;;;;4984431;28;21151;-44
2022/05/15 09:18:48;;;;;;;5.30;3.90;;;25.30;45.20;;;;;;4985308;28;20486;-44
2022/05/15 09:21:17;;;;;;;5.03;3.33;;;25.60;45.00;;;;;;4976996;28;20469;-45
2022/05/15 09:23:52;;;;;;;7.87;3.80;;;25.80;45.00;;;;;;4980772;28;21018;-45
2022/05/15 09:26:25;;;;;;;6.20;4.37;;;26.00;44.20;;;;;;4960563;28;20480;-44
2022/05/15 09:29:01;;;;;;;6.03;4.03;;;26.10;43.90;;;;;;4979373;28;20828;-45
2022/05/15 09:31:38;;;;;;;5.30;3.97;;;26.40;43.70;;;;;;4980336;28;21065;-44
2022/05/15 09:34:09;;;;;;;4.50;3.53;;;26.50;43.60;;;;;;4972786;28;20460;-44
2022/05/15 09:36:35;;;;;;;9.33;3.87;;;26.80;43.50;;;;;;4980156;28;20857;-44
2022/05/15 09:39:17;;;;;;;6.63;3.70;;;27.20;42.90;;;;;;4984453;28;20465;-44
2022/05/15 09:44:43;;;;;;;5.77;3.73;;;27.70;41.90;;;;;;4981096;28;20464;-44
2022/05/15 09:47:18;;;;;;;3.50;3.20;;;28.00;41.50;;;;;;4981789;28;20760;-44
2022/05/15 09:49:46;;;;;;;5.10;3.17;;;28.30;41.40;;;;;;4972538;28;20232;-44
2022/05/15 09:52:35;;;;;;;5.50;3.63;;;28.50;40.60;;;;;;4977272;28;20213;-44
2022/05/15 09:55:20;;;;;;;5.63;3.57;;;28.70;40.00;;;;;;4962577;28;20610;-44
2022/05/15 09:58:15;;;;;;;4.80;3.50;;;28.80;40.00;;;;;;4980761;28;20310;-44
2022/05/15 10:00:42;;;;;;;4.37;3.10;;;28.90;39.90;;;;;;4977145;28;20210;-44
2022/05/15 10:03:23;;;;;;;5.07;3.42;;;29.00;39.70;;;;;;4975495;28;20218;-44
2022/05/15 10:06:06;;;;;;;5.60;3.80;;;29.30;39.60;;;;;;4978184;28;20221;-44
2022/05/15 10:08:33;;;;;;;3.20;2.90;;;29.40;39.20;;;;;;4982929;28;20580;-45
2022/05/15 10:11:08;;;;;;;5.97;3.47;;;29.50;39.30;;;;;;4978778;28;20229;-44
2022/05/15 10:13:41;;;;;;;4.05;3.40;;;29.70;38.70;;;;;;4978239;28;20336;-44
2022/05/15 10:16:10;;;;;;;6.85;3.10;;;29.80;38.90;;;;;;4976743;28;20231;-45
2022/05/15 10:19:00;;;;;;;6.15;3.30;;;29.80;38.60;;;;;;4977154;28;20214;-45
2022/05/15 10:21:40;;;;;;;5.65;3.47;;;29.70;38.60;;;;;;4980067;28;20213;-45
2022/05/15 10:24:15;;;;;;;5.85;3.13;;;29.60;38.90;;;;;;4980088;28;20207;-45
2022/05/15 10:26:57;;;;;;;5.25;2.85;;;29.40;38.60;;;;;;4959295;28;20606;-45
2022/05/15 10:29:46;;;;;;;5.93;3.42;;;29.30;38.80;;;;;;4980248;28;20210;-45
2022/05/15 10:32:44;;;;;;;4.53;3.70;;;29.20;39.20;;;;;;4979357;28;20332;-45
2022/05/15 10:35:14;;;;;;;7.03;3.20;;;29.10;39.50;;;;;;4973388;28;20236;-45
2022/05/15 10:37:49;;;;;;;4.07;3.27;;;29.00;39.70;;;;;;4964819;28;20208;-44
2022/05/15 10:40:45;;;;;;;4.63;4.23;;;28.90;40.10;;;;;;4979953;28;20213;-44
2022/05/15 10:44:16;;;;;;;6.33;3.80;;;28.70;40.50;;;;;;4979646;28;20268;-44
2022/05/15 10:46:45;;;;;;;5.23;3.00;;;28.40;40.20;;;;;;4903765;29;20222;-44
2022/05/15 10:49:41;;;;;;;3.43;3.10;;;28.10;40.50;;;;;;4965572;28;20548;-44
2022/05/15 10:52:12;;;;;;;5.63;3.13;;;27.90;40.80;;;;;;4974683;28;20210;-44
2022/05/15 10:57:32;;;;;;;3.80;3.10;;;27.60;41.90;;;;;;4979472;28;20467;-44
2022/05/15 11:00:10;;;;;;;6.63;3.77;;;27.40;41.90;;;;;;4969070;28;20462;-44
2022/05/15 11:03:04;;;;;;;6.13;4.27;;;27.20;41.60;;;;;;4963490;28;20483;-45
2022/05/15 11:05:33;;;;;;;4.30;2.77;;;27.10;42.10;;;;;;4975457;28;20461;-44
2022/05/15 11:08:09;;;;;;;4.90;3.10;;;26.90;42.00;;;;;;4978282;28;20468;-44
2022/05/15 11:10:41;;;;;;;6.23;3.47;;;26.80;42.70;;;;;;4961633;28;20484;-44
2022/05/15 11:13:19;;;;;;;7.13;3.13;;;26.60;42.40;;;;;;4981482;28;20466;-44
2022/05/15 11:15:59;;;;;;;5.10;3.83;;;26.60;43.00;;;;;;4981717;28;20466;-44
2022/05/15 11:18:37;;;;;;;3.17;2.90;;;26.50;43.70;;;;;;4976590;28;20456;-44
2022/05/15 11:21:12;;;;;;;4.10;3.00;;;26.30;43.80;;;;;;4976350;28;20465;-45
2022/05/15 11:23:59;;;;;;;4.73;3.60;;;26.20;42.50;;;;;;4978044;28;20470;-45
2022/05/15 11:26:33;;;;;;;7.20;3.33;;;26.10;43.40;;;;;;4978062;28;20469;-45
2022/05/15 11:29:06;;;;;;;5.97;3.37;;;26.10;42.90;;;;;;4977836;28;20528;-45
2022/05/15 11:31:37;;;;;;;8.60;3.50;;;25.90;42.70;;;;;;4980695;28;20496;-45
2022/05/15 11:34:06;;;;;;;3.67;2.50;;;25.90;42.90;;;;;;4966172;28;20495;-45
2022/05/15 11:36:46;;;;;;;4.97;2.83;;;25.90;42.30;;;;;;4977773;28;20471;-45
2022/05/15 11:39:15;;;;;;;4.30;2.70;;;25.90;42.70;;;;;;4980744;28;20465;-45
2022/05/15 11:41:42;;;;;;;5.07;3.57;;;25.90;41.30;;;;;;4978027;28;20815;-44
2022/05/15 11:44:10;;;;;;;3.60;2.90;;;25.90;40.70;;;;;;4981755;28;20460;-45
2022/05/15 11:46:49;;;;;;;5.20;2.60;;;25.90;41.00;;;;;;4973491;28;20829;-45
2022/05/15 11:49:26;;;;;;;4.50;2.80;;;25.90;41.20;;;;;;4978928;28;20473;-46
2022/05/15 11:52:05;;;;;;;4.10;3.20;;;25.90;41.00;;;;;;4977992;28;20574;-45
2022/05/15 11:54:55;;;;;;;3.80;3.10;;;25.90;41.60;;;;;;4976525;28;20446;-45
2022/05/15 11:57:44;;;;;;;2.87;2.43;;;25.90;41.60;;;;;;4971885;28;20983;-45
2022/05/15 12:00:24;;;;;;;5.73;3.17;;;25.90;41.80;;;;;;4976924;28;20468;-45
2022/05/15 12:02:53;;;;;;;3.80;3.17;;;26.00;40.90;;;;;;4964635;28;20477;-45
2022/05/15 12:05:31;;;;;;;3.60;2.50;;;26.10;40.70;;;;;;4973569;28;20469;-45
2022/05/15 12:08:25;;;;;;;4.17;2.90;;;26.00;40.00;;;;;;4974943;28;20458;-45
2022/05/15 12:10:58;;;;;;;3.80;2.60;;;26.00;40.80;;;;;;4970255;28;20520;-44
2022/05/15 12:13:27;;;;;;;3.40;3.10;;;26.10;41.00;;;;;;4978478;28;20493;-45
2022/05/15 12:16:18;;;;;;;5.17;3.03;;;26.10;40.70;;;;;;4978257;28;21013;-44
2022/05/15 12:18:46;;;;;;;8.17;2.60;;;26.10;40.90;;;;;;4978836;28;20476;-44
2022/05/15 12:21:16;;;;;;;2.43;2.23;;;26.00;40.90;;;;;;4979466;28;20450;-45
2022/05/15 12:26:59;;;;;;;4.23;2.30;;;26.20;40.20;;;;;;4977967;28;20942;-45
2022/05/15 12:29:28;;;;;;;2.53;2.33;;;26.20;37.90;;;;;;4978965;28;20453;-45
2022/05/15 12:31:56;;;;;;;3.77;2.40;;;26.20;37.00;;;;;;4980667;28;20493;-44
2022/05/15 12:34:42;;;;;;;4.87;2.20;;;26.10;36.20;;;;;;4981347;28;20457;-45
2022/05/15 12:37:11;;;;;;;7.90;2.70;;;26.20;36.60;;;;;;4980597;28;20525;-45
2022/05/15 12:39:45;;;;;;;2.23;1.63;;;26.10;36.70;;;;;;4980443;28;20441;-45
2022/05/15 12:42:17;;;;;;;4.27;2.20;;;26.10;36.30;;;;;;4979734;28;20551;-45
2022/05/15 12:44:44;;;;;;;3.10;2.40;;;26.20;36.80;;;;;;4979571;28;20833;-44
2022/05/15 12:47:24;;;;;;;6.10;2.13;;;26.20;37.30;;;;;;4983136;28;20549;-44
2022/05/15 12:49:59;;;;;;;5.07;2.10;;;26.20;37.50;;;;;;4981034;28;20484;-44
2022/05/15 12:52:29;;;;;;;5.20;2.10;;;26.20;37.00;;;;;;4977943;28;20815;-44
2022/05/15 12:55:01;;;;;;;3.23;2.40;;;26.20;36.80;;;;;;4966205;28;20586;-44
2022/05/15 12:57:29;;;;;;;2.90;1.90;;;26.30;37.40;;;;;;4977858;28;20560;-45
2022/05/15 12:59:56;;;;;;;4.20;2.10;;;26.40;36.50;;;;;;4980767;28;21013;-44
2022/05/15 13:02:33;;;;;;;4.03;2.70;;;26.40;36.60;;;;;;4982932;28;20468;-44
2022/05/15 13:05:25;;;;;;;4.00;2.03;;;26.40;36.30;;;;;;4984075;28;20447;-45
2022/05/15 13:07:58;;;;;;;3.77;1.93;;;26.40;36.50;;;;;;4979778;28;20461;-44
2022/05/15 13:10:32;;;;;;;2.57;2.10;;;26.40;36.50;;;;;;4979613;28;20484;-44
2022/05/15 13:13:25;;;;;;;4.17;2.93;;;26.40;36.50;;;;;;4974026;28;20465;-45
2022/05/15 13:15:55;;;;;;;6.17;2.17;;;26.40;37.40;;;;;;4963457;28;20480;-44
2022/05/15 13:18:25;;;;;;;4.70;2.20;;;26.40;36.80;;;;;;4980188;28;20469;-45
2022/05/15 13:21:01;;;;;;;3.77;2.23;;;26.50;36.80;;;;;;4980272;28;20541;-44
2022/05/15 13:23:42;;;;;;;3.00;2.23;;;26.50;36.40;;;;;;4961650;28;20493;-45
2022/05/15 13:26:17;;;;;;;3.20;2.27;;;26.60;35.70;;;;;;4962162;28;20535;-44
2022/05/15 13:28:44;;;;;;;3.97;2.73;;;26.60;35.10;;;;;;4983628;28;20452;-45